Time;durP1;ratioP1;P1;durP2;ratioP2;P2;SDS_P1;SDS_P2;PMS_P1;PMS_P2;Temp;Humidity;BMP_temperature;BMP_pressure;BME280_temperature;BME280_humidity;BME280_pressure;Samples;Min_cycle;Max_cycle;Signal;HPM_P1;HPM_P2
2024/01/31 00:02:17;;;;;;;10.33;8.77;;;8.80;99.90;;;;;;4986137;28;20456;-58
2024/01/31 00:04:42;;;;;;;12.53;9.20;;;8.80;99.90;;;;;;4980968;28;20177;-60
2024/01/31 00:07:08;;;;;;;9.03;7.70;;;8.80;99.90;;;;;;4978669;28;20671;-60
2024/01/31 00:09:33;;;;;;;7.40;6.70;;;8.80;99.90;;;;;;4982352;28;20185;-60
2024/01/31 00:11:59;;;;;;;7.17;6.40;;;8.90;99.90;;;;;;4981486;28;20203;-59
2024/01/31 00:14:24;;;;;;;9.73;6.50;;;8.90;99.90;;;;;;4981373;28;20259;-59
2024/01/31 00:16:51;;;;;;;9.00;7.07;;;9.00;99.90;;;;;;4977860;28;20190;-60
2024/01/31 00:19:16;;;;;;;7.33;5.87;;;9.00;99.90;;;;;;4988634;28;20291;-60
2024/01/31 00:21:42;;;;;;;13.53;7.13;;;8.90;99.90;;;;;;4981594;28;20511;-61
2024/01/31 00:24:09;;;;;;;11.37;6.60;;;8.90;99.90;;;;;;4994634;28;20341;-61
2024/01/31 00:26:35;;;;;;;8.00;7.13;;;9.00;99.90;;;;;;4985015;28;20172;-62
2024/01/31 00:29:01;;;;;;;13.60;7.53;;;9.00;99.90;;;;;;4986437;28;20764;-62
2024/01/31 00:31:30;;;;;;;7.77;7.00;;;9.00;99.90;;;;;;4986681;28;20487;-61
2024/01/31 00:33:55;;;;;;;8.43;6.60;;;9.00;99.90;;;;;;4985834;28;20228;-61
2024/01/31 00:36:21;;;;;;;7.23;6.30;;;8.90;99.90;;;;;;4988596;28;20459;-62
2024/01/31 00:38:47;;;;;;;7.83;6.50;;;9.00;99.90;;;;;;4989840;28;20252;-61
2024/01/31 00:41:12;;;;;;;9.67;6.20;;;8.90;99.90;;;;;;4989167;28;20277;-62
2024/01/31 00:43:38;;;;;;;11.23;6.70;;;8.90;99.90;;;;;;4977638;28;20684;-60
2024/01/31 00:46:04;;;;;;;13.43;7.20;;;8.90;99.90;;;;;;4996248;28;20477;-61
2024/01/31 00:48:32;;;;;;;8.17;5.50;;;8.90;99.90;;;;;;4989553;28;20295;-61
2024/01/31 00:50:58;;;;;;;7.97;6.47;;;8.90;99.90;;;;;;4987083;28;20574;-60
2024/01/31 00:53:24;;;;;;;6.03;5.43;;;8.90;99.90;;;;;;4984145;28;20451;-61
2024/01/31 00:55:49;;;;;;;6.10;5.50;;;8.90;99.90;;;;;;4989630;28;20415;-61
2024/01/31 00:58:15;;;;;;;6.70;5.97;;;8.90;99.90;;;;;;4979086;28;20633;-57
2024/01/31 01:00:40;;;;;;;7.00;6.13;;;8.90;99.90;;;;;;4978569;28;20188;-57
2024/01/31 01:03:06;;;;;;;10.83;6.47;;;8.90;99.90;;;;;;4987411;28;20275;-60
2024/01/31 01:05:32;;;;;;;5.73;5.03;;;8.90;99.90;;;;;;4984021;28;20737;-60
2024/01/31 01:07:58;;;;;;;6.50;4.50;;;8.90;99.90;;;;;;4988206;28;20606;-61
2024/01/31 01:10:24;;;;;;;7.47;6.37;;;8.90;99.90;;;;;;4990817;28;20423;-60
2024/01/31 01:12:50;;;;;;;5.43;4.93;;;8.90;99.90;;;;;;4984390;28;20449;-61
2024/01/31 01:15:18;;;;;;;6.87;4.70;;;8.90;99.90;;;;;;4977467;28;20184;-61
2024/01/31 01:17:44;;;;;;;6.67;5.40;;;8.90;99.90;;;;;;4980333;28;20212;-61
2024/01/31 01:20:10;;;;;;;5.80;4.90;;;8.90;99.90;;;;;;4994263;28;20439;-61
2024/01/31 01:22:36;;;;;;;6.07;5.47;;;8.90;99.90;;;;;;4983732;28;20627;-62
2024/01/31 01:25:01;;;;;;;6.93;4.50;;;8.90;99.90;;;;;;4986160;28;20170;-61
2024/01/31 01:27:27;;;;;;;5.87;4.57;;;8.90;99.90;;;;;;4984246;28;20185;-62
2024/01/31 01:29:53;;;;;;;4.90;4.30;;;8.90;99.90;;;;;;4985090;28;20664;-61
2024/01/31 01:32:19;;;;;;;9.33;5.17;;;8.90;99.90;;;;;;4986926;28;20616;-61
2024/01/31 01:34:45;;;;;;;5.37;4.87;;;9.00;99.90;;;;;;4981145;28;20541;-60
2024/01/31 01:37:11;;;;;;;5.67;4.70;;;9.00;99.90;;;;;;4982781;28;20223;-62
2024/01/31 01:39:37;;;;;;;8.20;4.67;;;9.00;99.90;;;;;;4979358;28;20487;-62
2024/01/31 01:42:03;;;;;;;4.83;4.20;;;9.00;99.90;;;;;;4985539;28;20204;-61
2024/01/31 01:44:32;;;;;;;7.40;4.60;;;8.90;99.90;;;;;;4981241;28;20467;-62
2024/01/31 01:46:58;;;;;;;5.83;4.87;;;8.90;99.90;;;;;;4988171;28;20277;-59
2024/01/31 01:49:24;;;;;;;6.17;5.43;;;8.90;99.90;;;;;;4999736;28;20431;-60
2024/01/31 01:51:50;;;;;;;4.40;3.77;;;8.90;99.90;;;;;;4999367;28;20453;-60
2024/01/31 01:54:16;;;;;;;5.87;3.90;;;8.90;99.90;;;;;;4987154;28;20438;-60
2024/01/31 01:56:45;;;;;;;4.53;3.40;;;8.90;99.90;;;;;;4994584;28;20451;-60
2024/01/31 01:59:11;;;;;;;4.47;3.90;;;8.90;99.90;;;;;;4979373;28;20395;-60
2024/01/31 02:01:39;;;;;;;6.30;3.80;;;8.90;99.90;;;;;;4983558;28;20581;-60
2024/01/31 02:04:07;;;;;;;6.77;4.17;;;9.00;99.90;;;;;;4986824;28;20500;-60
2024/01/31 02:06:33;;;;;;;3.60;3.30;;;9.00;99.90;;;;;;4980660;28;20440;-61
2024/01/31 02:08:59;;;;;;;4.13;3.60;;;8.90;99.90;;;;;;4991689;28;20483;-61
2024/01/31 02:11:25;;;;;;;5.90;3.33;;;8.90;99.90;;;;;;4983749;28;20191;-61
2024/01/31 02:13:51;;;;;;;3.57;3.07;;;8.90;99.90;;;;;;4987068;28;20436;-60
2024/01/31 02:16:16;;;;;;;4.57;3.10;;;8.90;99.90;;;;;;4983455;28;20829;-61
2024/01/31 02:18:42;;;;;;;2.87;2.67;;;8.90;99.90;;;;;;4982341;28;20209;-60
2024/01/31 02:21:07;;;;;;;2.10;1.90;;;8.80;99.90;;;;;;4989519;28;20231;-62
2024/01/31 02:23:33;;;;;;;3.00;2.63;;;8.80;99.90;;;;;;4990123;28;20216;-60
2024/01/31 02:25:59;;;;;;;6.67;2.57;;;8.80;99.90;;;;;;4994979;28;20557;-59
2024/01/31 02:28:25;;;;;;;3.10;2.43;;;8.70;99.90;;;;;;4992060;28;20286;-60
2024/01/31 02:30:51;;;;;;;1.97;1.60;;;8.70;99.90;;;;;;4985440;28;20471;-61
2024/01/31 02:33:17;;;;;;;2.27;2.07;;;8.70;99.90;;;;;;4983692;28;20258;-61
2024/01/31 02:35:42;;;;;;;3.93;1.90;;;8.60;99.90;;;;;;4985356;28;20543;-60
2024/01/31 02:38:08;;;;;;;2.83;2.00;;;8.60;99.90;;;;;;4985796;28;20682;-61
2024/01/31 02:40:33;;;;;;;2.13;1.93;;;8.50;99.90;;;;;;4987428;28;20639;-61
2024/01/31 02:42:59;;;;;;;2.47;2.27;;;8.50;99.90;;;;;;4993387;28;20193;-61
2024/01/31 02:45:25;;;;;;;2.80;1.40;;;8.50;99.90;;;;;;4988419;28;20169;-61
2024/01/31 02:47:51;;;;;;;2.07;1.87;;;8.50;99.90;;;;;;4988970;28;20286;-60
2024/01/31 02:50:17;;;;;;;1.50;1.40;;;8.40;99.90;;;;;;4994800;28;20431;-62
2024/01/31 02:52:44;;;;;;;1.70;1.60;;;8.50;99.90;;;;;;4987287;28;20197;-61
2024/01/31 02:55:09;;;;;;;1.90;1.70;;;8.40;99.90;;;;;;4986878;28;20183;-62
2024/01/31 02:57:35;;;;;;;2.20;1.87;;;8.40;99.90;;;;;;4985419;28;20463;-61
2024/01/31 03:00:02;;;;;;;3.53;2.07;;;8.30;99.90;;;;;;4996378;28;20181;-61
2024/01/31 03:02:27;;;;;;;2.23;2.00;;;8.30;99.90;;;;;;4984803;28;20531;-61
2024/01/31 03:04:53;;;;;;;2.00;1.73;;;8.30;99.90;;;;;;4988449;28;20527;-61
2024/01/31 03:07:18;;;;;;;2.10;1.90;;;8.30;99.90;;;;;;4986081;28;20206;-62
2024/01/31 03:09:45;;;;;;;2.47;2.10;;;8.30;99.90;;;;;;4994513;28;20176;-62
2024/01/31 03:12:10;;;;;;;3.50;2.13;;;8.30;99.90;;;;;;4994296;28;20604;-62
2024/01/31 03:14:36;;;;;;;2.37;1.83;;;8.30;99.90;;;;;;4991852;28;20446;-62
2024/01/31 03:17:02;;;;;;;2.03;1.70;;;8.30;99.90;;;;;;4994645;28;20243;-62
2024/01/31 03:19:30;;;;;;;1.83;1.73;;;8.30;99.90;;;;;;4976944;28;20432;-63
2024/01/31 03:21:56;;;;;;;1.90;1.73;;;8.30;99.90;;;;;;4990129;28;20408;-61
2024/01/31 03:24:22;;;;;;;4.73;2.60;;;8.20;99.90;;;;;;4988984;28;20971;-62
2024/01/31 03:26:48;;;;;;;1.80;1.70;;;8.20;99.90;;;;;;4984359;28;20235;-62
2024/01/31 03:29:14;;;;;;;1.87;1.73;;;8.20;99.90;;;;;;4988959;28;20793;-62
2024/01/31 03:31:39;;;;;;;1.67;1.53;;;8.20;99.90;;;;;;4997686;28;20427;-62
2024/01/31 03:34:05;;;;;;;2.17;1.70;;;8.20;99.90;;;;;;4997519;28;20194;-62
2024/01/31 03:36:32;;;;;;;1.50;1.40;;;8.10;99.90;;;;;;4996004;28;20263;-62
2024/01/31 03:38:58;;;;;;;2.60;1.50;;;8.10;99.90;;;;;;4989486;28;20282;-63
2024/01/31 03:41:25;;;;;;;2.20;1.60;;;8.10;99.90;;;;;;4990789;28;20448;-62
2024/01/31 03:43:51;;;;;;;1.83;1.40;;;8.10;99.90;;;;;;4994858;28;20518;-62
2024/01/31 03:46:16;;;;;;;2.50;2.00;;;8.10;99.90;;;;;;5002374;28;20833;-61
2024/01/31 03:48:42;;;;;;;1.60;1.50;;;8.10;99.90;;;;;;4999433;28;20184;-60
2024/01/31 03:51:18;;;;;;;3.27;1.33;;;8.00;99.90;;;;;;4988339;28;20187;-61
2024/01/31 03:53:44;;;;;;;1.10;1.00;;;7.90;99.90;;;;;;4991856;28;20365;-61
2024/01/31 03:56:09;;;;;;;1.10;1.00;;;7.90;99.90;;;;;;4998467;28;20454;-60
2024/01/31 03:58:35;;;;;;;4.10;1.40;;;7.90;99.90;;;;;;4983500;28;20195;-61
2024/01/31 04:01:00;;;;;;;1.50;1.40;;;7.90;99.90;;;;;;4990588;28;20282;-61
2024/01/31 04:03:26;;;;;;;2.00;1.40;;;7.80;99.90;;;;;;4995798;28;20592;-61
2024/01/31 04:05:51;;;;;;;1.07;0.90;;;7.70;99.90;;;;;;4993313;28;20177;-61
2024/01/31 04:08:17;;;;;;;1.27;1.13;;;7.70;99.90;;;;;;4987792;28;20188;-62
2024/01/31 04:10:43;;;;;;;1.20;1.10;;;7.70;99.90;;;;;;4993542;28;20736;-60
2024/01/31 04:13:08;;;;;;;3.63;1.30;;;7.70;99.90;;;;;;5001905;28;20205;-60
2024/01/31 04:15:34;;;;;;;2.70;1.07;;;7.70;99.90;;;;;;5003525;28;20179;-58
2024/01/31 04:18:00;;;;;;;1.53;0.80;;;7.60;99.90;;;;;;4994768;28;20294;-60
2024/01/31 04:20:26;;;;;;;1.10;1.00;;;7.60;99.90;;;;;;4991867;28;20210;-57
2024/01/31 04:22:52;;;;;;;1.30;1.20;;;7.60;99.90;;;;;;4987552;28;20459;-61
2024/01/31 04:25:17;;;;;;;1.80;1.63;;;7.60;99.90;;;;;;4997530;28;20248;-60
2024/01/31 04:27:43;;;;;;;1.97;1.10;;;7.60;99.90;;;;;;4991529;28;20180;-62
2024/01/31 04:30:10;;;;;;;1.20;1.10;;;7.60;99.90;;;;;;4998233;28;20273;-60
2024/01/31 04:32:36;;;;;;;1.03;0.93;;;7.60;99.90;;;;;;4986469;28;20199;-62
2024/01/31 04:35:01;;;;;;;1.17;1.07;;;7.60;99.90;;;;;;4982251;28;20419;-61
2024/01/31 04:37:27;;;;;;;2.03;1.10;;;7.60;99.90;;;;;;4986903;28;20199;-61
2024/01/31 04:39:53;;;;;;;1.10;1.00;;;7.60;99.90;;;;;;4991326;28;20598;-61
2024/01/31 04:42:18;;;;;;;1.13;1.03;;;7.60;99.90;;;;;;4991340;28;20199;-61
2024/01/31 04:44:45;;;;;;;2.17;1.30;;;7.60;99.90;;;;;;4989373;28;20180;-61
2024/01/31 04:47:11;;;;;;;1.60;1.50;;;7.50;99.90;;;;;;4983191;28;20262;-60
2024/01/31 04:49:37;;;;;;;1.10;1.00;;;7.50;99.90;;;;;;4993355;28;20426;-59
2024/01/31 04:52:03;;;;;;;2.67;1.30;;;7.40;99.90;;;;;;4989360;28;20532;-61
2024/01/31 04:54:28;;;;;;;2.40;1.30;;;7.30;99.90;;;;;;4991089;28;20673;-60
2024/01/31 04:56:54;;;;;;;2.30;1.10;;;7.30;99.90;;;;;;4996192;28;20189;-60
2024/01/31 04:59:20;;;;;;;1.97;1.30;;;7.30;99.90;;;;;;4989910;28;20640;-60
2024/01/31 05:01:45;;;;;;;2.13;1.93;;;7.30;99.90;;;;;;4997418;28;20429;-59
2024/01/31 05:04:11;;;;;;;2.73;1.70;;;7.20;99.90;;;;;;4990722;28;20511;-57
2024/01/31 05:06:36;;;;;;;1.70;1.60;;;7.20;99.90;;;;;;4990909;28;20370;-60
2024/01/31 05:09:03;;;;;;;2.17;1.60;;;7.30;99.90;;;;;;4982279;28;20180;-59
2024/01/31 05:11:28;;;;;;;1.53;1.43;;;7.30;99.90;;;;;;4986947;28;20678;-60
2024/01/31 05:13:54;;;;;;;1.33;1.23;;;7.10;99.90;;;;;;4984303;28;20451;-59
2024/01/31 05:16:20;;;;;;;1.40;1.30;;;7.10;99.90;;;;;;4989468;28;20190;-59
2024/01/31 05:18:45;;;;;;;2.73;1.60;;;7.10;99.90;;;;;;4992113;28;20285;-60
2024/01/31 05:21:11;;;;;;;1.73;1.10;;;7.00;99.90;;;;;;4982751;28;20298;-59
2024/01/31 05:23:37;;;;;;;1.30;1.20;;;6.90;99.90;;;;;;4987621;28;20645;-59
2024/01/31 05:26:09;;;;;;;1.60;1.40;;;6.80;99.90;;;;;;4986100;28;20239;-60
2024/01/31 05:28:36;;;;;;;1.40;0.90;;;6.80;99.90;;;;;;4991400;28;20477;-59
2024/01/31 05:31:03;;;;;;;4.70;1.10;;;6.50;99.90;;;;;;4980516;28;20437;-60
2024/01/31 05:33:29;;;;;;;1.53;1.17;;;6.50;99.90;;;;;;4990354;28;20464;-60
2024/01/31 05:35:57;;;;;;;2.37;1.10;;;6.50;99.90;;;;;;4987312;28;20482;-59
2024/01/31 05:38:23;;;;;;;2.30;1.10;;;6.40;99.90;;;;;;4977829;28;20448;-60
2024/01/31 05:40:49;;;;;;;1.00;1.00;;;6.40;99.90;;;;;;4985755;28;20421;-62
2024/01/31 05:43:15;;;;;;;3.17;0.97;;;6.30;99.90;;;;;;4981840;28;20193;-64
2024/01/31 05:45:40;;;;;;;1.23;1.13;;;6.20;99.90;;;;;;4985913;28;20173;-60
2024/01/31 05:48:06;;;;;;;1.00;0.90;;;6.20;99.90;;;;;;4980262;28;20233;-60
2024/01/31 05:50:32;;;;;;;1.40;1.00;;;6.20;99.90;;;;;;4995306;28;20180;-59
2024/01/31 05:52:58;;;;;;;1.83;1.13;;;6.10;99.90;;;;;;4987226;28;20428;-59
2024/01/31 05:55:23;;;;;;;0.70;0.70;;;6.00;99.90;;;;;;4985631;28;20206;-59
2024/01/31 05:57:49;;;;;;;1.20;1.10;;;6.00;99.90;;;;;;4990609;28;20570;-59
2024/01/31 06:00:16;;;;;;;1.33;0.97;;;6.00;99.90;;;;;;4985674;28;20181;-60
2024/01/31 06:02:42;;;;;;;1.03;0.90;;;6.00;99.90;;;;;;4987903;28;20520;-60
2024/01/31 06:05:08;;;;;;;1.93;0.70;;;6.00;99.90;;;;;;4992499;28;20501;-61
2024/01/31 06:07:34;;;;;;;1.20;0.80;;;6.00;99.90;;;;;;4981671;28;20178;-60
2024/01/31 06:09:59;;;;;;;0.97;0.90;;;5.90;99.90;;;;;;4994205;28;20675;-60
2024/01/31 06:12:25;;;;;;;1.30;0.90;;;6.00;99.90;;;;;;4990633;28;20196;-60
2024/01/31 06:14:50;;;;;;;1.10;1.00;;;6.00;99.90;;;;;;5004492;28;20176;-59
2024/01/31 06:17:17;;;;;;;1.97;1.87;;;5.90;99.90;;;;;;4989878;28;20265;-57
2024/01/31 06:19:43;;;;;;;1.53;1.27;;;5.90;99.90;;;;;;4986774;28;20176;-59
2024/01/31 06:22:08;;;;;;;1.50;1.00;;;6.00;99.90;;;;;;4991055;28;20428;-60
2024/01/31 06:24:34;;;;;;;1.00;0.90;;;6.00;99.90;;;;;;4989801;28;20436;-60
2024/01/31 06:27:00;;;;;;;1.20;1.10;;;5.90;99.90;;;;;;4985106;28;20193;-61
2024/01/31 06:29:25;;;;;;;1.10;1.00;;;5.90;99.90;;;;;;4992606;28;20168;-60
2024/01/31 06:31:52;;;;;;;2.00;0.93;;;6.00;99.90;;;;;;4986922;28;20184;-60
2024/01/31 06:34:18;;;;;;;0.90;0.90;;;5.90;99.90;;;;;;4998168;28;20202;-59
2024/01/31 06:36:44;;;;;;;1.17;0.93;;;6.00;99.90;;;;;;4984810;28;20414;-60
2024/01/31 06:39:10;;;;;;;1.53;1.00;;;5.90;99.90;;;;;;4990055;28;20460;-60
2024/01/31 06:41:37;;;;;;;1.00;1.00;;;5.90;99.90;;;;;;4987815;28;20471;-60
2024/01/31 06:44:03;;;;;;;1.20;1.10;;;6.00;99.90;;;;;;4996755;28;20435;-59
2024/01/31 06:46:29;;;;;;;1.93;1.13;;;6.00;99.90;;;;;;4985291;28;20424;-60
2024/01/31 06:48:55;;;;;;;1.40;1.30;;;5.90;99.90;;;;;;4986804;28;20698;-61
2024/01/31 06:51:21;;;;;;;1.10;0.90;;;5.90;99.90;;;;;;5000246;28;20425;-60
2024/01/31 06:53:47;;;;;;;2.30;1.30;;;5.90;99.90;;;;;;4986005;28;20587;-60
2024/01/31 06:56:17;;;;;;;1.13;1.03;;;5.90;99.90;;;;;;4999862;28;20175;-60
2024/01/31 06:58:46;;;;;;;1.40;1.07;;;5.90;99.90;;;;;;4987390;28;20196;-60
2024/01/31 07:01:19;;;;;;;1.83;1.17;;;5.90;99.90;;;;;;4990325;28;20452;-60
2024/01/31 07:03:45;;;;;;;1.27;1.00;;;5.90;99.90;;;;;;4997406;28;20811;-61
2024/01/31 07:06:15;;;;;;;1.37;1.27;;;5.90;99.90;;;;;;4989350;28;20422;-60
2024/01/31 07:08:41;;;;;;;0.80;0.80;;;5.80;99.90;;;;;;4987006;28;20421;-60
2024/01/31 07:11:08;;;;;;;3.07;0.97;;;5.90;99.90;;;;;;4986102;28;20413;-58
2024/01/31 07:13:34;;;;;;;0.90;0.90;;;5.90;99.90;;;;;;4984529;28;20441;-59
2024/01/31 07:16:02;;;;;;;0.90;0.90;;;5.90;99.90;;;;;;4983180;28;20425;-59
2024/01/31 07:18:28;;;;;;;1.20;1.10;;;5.90;99.90;;;;;;4988375;28;20467;-61
2024/01/31 07:20:53;;;;;;;1.03;0.90;;;5.90;99.90;;;;;;4991864;28;20903;-60
2024/01/31 07:23:19;;;;;;;1.20;1.10;;;5.90;99.90;;;;;;4989694;28;20214;-59
2024/01/31 07:25:44;;;;;;;1.40;1.20;;;5.90;99.90;;;;;;4986731;28;20178;-60
2024/01/31 07:28:10;;;;;;;0.80;0.80;;;5.90;99.90;;;;;;4987481;28;20170;-60
2024/01/31 07:30:36;;;;;;;0.83;0.70;;;5.80;99.90;;;;;;4989407;28;20169;-61
2024/01/31 07:33:02;;;;;;;1.10;1.00;;;5.80;99.90;;;;;;4989612;28;20197;-59
2024/01/31 07:35:27;;;;;;;3.70;1.27;;;5.70;99.90;;;;;;5002470;28;20230;-61
2024/01/31 07:37:53;;;;;;;1.70;1.30;;;5.80;99.90;;;;;;4986802;28;21022;-59
2024/01/31 07:40:18;;;;;;;1.33;1.23;;;5.80;99.90;;;;;;4986163;28;20179;-62
2024/01/31 07:42:44;;;;;;;2.00;1.10;;;5.70;99.90;;;;;;4984478;28;20189;-61
2024/01/31 07:45:10;;;;;;;1.27;1.00;;;5.60;99.90;;;;;;4986856;28;20181;-61
2024/01/31 07:47:37;;;;;;;2.93;1.13;;;5.50;99.90;;;;;;4988824;28;20179;-62
2024/01/31 07:50:04;;;;;;;1.10;1.00;;;5.60;99.90;;;;;;4992666;28;20173;-61
2024/01/31 07:52:30;;;;;;;5.00;0.90;;;5.60;99.90;;;;;;4983363;28;20468;-58
2024/01/31 07:54:56;;;;;;;2.10;1.17;;;5.60;99.90;;;;;;4996407;28;20913;-61
2024/01/31 07:57:21;;;;;;;2.13;0.87;;;5.70;99.90;;;;;;4989403;28;20185;-60
2024/01/31 07:59:47;;;;;;;1.17;0.90;;;5.70;99.90;;;;;;4992176;28;20182;-60
2024/01/31 08:02:13;;;;;;;1.00;0.90;;;5.70;99.90;;;;;;4988320;28;20273;-62
2024/01/31 08:04:38;;;;;;;1.53;0.90;;;5.70;99.90;;;;;;4988850;28;20177;-60
2024/01/31 08:07:04;;;;;;;1.10;0.93;;;5.60;99.90;;;;;;4988018;28;20271;-62
2024/01/31 08:09:29;;;;;;;0.83;0.83;;;5.60;99.90;;;;;;5000640;28;20345;-59
2024/01/31 08:11:56;;;;;;;2.00;0.90;;;5.50;99.90;;;;;;5000335;28;20173;-59
2024/01/31 08:14:21;;;;;;;0.90;0.90;;;5.50;99.90;;;;;;4983407;28;20578;-60
2024/01/31 08:16:50;;;;;;;0.90;0.90;;;5.60;99.90;;;;;;4987172;28;20531;-64
2024/01/31 08:19:15;;;;;;;1.27;0.90;;;5.60;99.90;;;;;;4989462;28;20625;-55
2024/01/31 08:21:41;;;;;;;1.60;1.17;;;5.70;99.90;;;;;;4996003;28;20469;-61
2024/01/31 08:24:07;;;;;;;1.93;1.37;;;5.70;99.90;;;;;;4994621;28;20828;-60
2024/01/31 08:26:33;;;;;;;1.20;0.90;;;5.70;99.90;;;;;;4992130;28;20941;-61
2024/01/31 08:29:01;;;;;;;1.10;1.00;;;5.80;99.90;;;;;;4987799;28;20320;-62
2024/01/31 08:31:26;;;;;;;1.10;1.00;;;5.80;99.90;;;;;;4981507;28;20190;-62
2024/01/31 08:33:52;;;;;;;1.77;1.10;;;5.80;99.90;;;;;;4991297;28;20437;-60
2024/01/31 08:36:17;;;;;;;2.20;1.10;;;5.90;99.90;;;;;;4980216;28;20186;-61
2024/01/31 08:38:43;;;;;;;1.83;1.23;;;5.90;99.90;;;;;;4990215;28;20211;-62
2024/01/31 08:41:11;;;;;;;1.90;1.20;;;5.80;99.90;;;;;;4985485;28;20169;-61
2024/01/31 08:43:36;;;;;;;3.67;1.20;;;5.80;99.90;;;;;;4993463;28;20205;-58
2024/01/31 08:46:02;;;;;;;1.03;0.70;;;5.80;99.90;;;;;;4989942;28;20420;-61
2024/01/31 08:48:28;;;;;;;1.80;0.90;;;5.70;99.90;;;;;;4984103;28;20186;-60
2024/01/31 08:50:53;;;;;;;1.47;0.80;;;5.70;99.90;;;;;;4986890;28;20500;-63
2024/01/31 08:53:19;;;;;;;0.87;0.80;;;5.50;99.90;;;;;;4993074;28;20282;-61
2024/01/31 08:55:44;;;;;;;1.30;1.00;;;5.50;99.90;;;;;;4995934;28;20260;-55
2024/01/31 08:58:10;;;;;;;0.90;0.80;;;5.30;99.90;;;;;;4995680;28;20542;-60
2024/01/31 09:00:35;;;;;;;1.13;1.03;;;5.20;99.90;;;;;;4997630;28;20165;-61
2024/01/31 09:03:03;;;;;;;1.90;0.97;;;5.10;99.90;;;;;;4992450;28;20630;-61
2024/01/31 09:05:29;;;;;;;1.10;0.90;;;5.20;99.90;;;;;;4988989;28;20188;-61
2024/01/31 09:07:55;;;;;;;0.90;0.90;;;5.30;99.90;;;;;;4987463;28;20421;-59
2024/01/31 09:10:21;;;;;;;1.13;1.00;;;5.30;99.90;;;;;;4989224;28;20189;-58
2024/01/31 09:12:47;;;;;;;2.87;2.57;;;5.20;99.90;;;;;;4988901;28;20497;-61
2024/01/31 09:15:13;;;;;;;3.27;1.10;;;5.30;99.90;;;;;;4989476;28;20799;-58
2024/01/31 09:17:39;;;;;;;1.43;1.10;;;5.30;99.90;;;;;;4992605;28;20572;-58
2024/01/31 09:20:06;;;;;;;5.20;1.03;;;5.40;99.90;;;;;;4988916;28;20208;-59
2024/01/31 09:22:32;;;;;;;2.90;0.90;;;5.50;99.90;;;;;;4971428;28;20309;-60
2024/01/31 09:24:57;;;;;;;1.33;0.90;;;5.50;99.90;;;;;;4988013;28;20507;-59
2024/01/31 09:27:23;;;;;;;0.90;0.80;;;5.20;99.90;;;;;;4990207;28;20235;-59
2024/01/31 09:29:48;;;;;;;1.13;0.80;;;5.30;99.90;;;;;;4985112;28;20230;-60
2024/01/31 09:32:15;;;;;;;0.80;0.80;;;5.30;99.90;;;;;;4992447;28;20774;-61
2024/01/31 09:34:41;;;;;;;1.77;0.90;;;5.30;99.90;;;;;;4988067;28;20303;-63
2024/01/31 09:37:07;;;;;;;1.77;1.00;;;5.40;99.90;;;;;;4991518;28;20428;-60
2024/01/31 09:39:33;;;;;;;1.10;1.00;;;5.40;99.90;;;;;;4971867;28;20456;-62
2024/01/31 09:41:59;;;;;;;2.10;0.97;;;5.40;99.90;;;;;;4986400;28;20413;-61
2024/01/31 09:44:25;;;;;;;1.90;1.20;;;5.40;99.90;;;;;;4987999;28;20689;-61
2024/01/31 09:46:53;;;;;;;0.80;0.80;;;5.40;99.90;;;;;;4985760;28;20170;-58
2024/01/31 09:49:19;;;;;;;0.80;0.80;;;5.50;99.90;;;;;;4992495;28;20531;-61
2024/01/31 09:51:45;;;;;;;2.60;1.00;;;5.50;99.90;;;;;;4987946;28;20496;-61
2024/01/31 09:54:11;;;;;;;1.20;0.90;;;5.40;99.90;;;;;;4988861;28;20224;-61
2024/01/31 09:56:36;;;;;;;1.27;0.97;;;5.40;99.90;;;;;;4990569;28;20413;-62
2024/01/31 09:59:03;;;;;;;1.63;1.50;;;5.40;99.90;;;;;;4987880;28;20573;-63
2024/01/31 10:01:29;;;;;;;1.10;1.00;;;5.40;99.90;;;;;;4984941;28;20166;-65
2024/01/31 10:03:57;;;;;;;1.20;1.10;;;5.40;99.90;;;;;;4988978;28;20838;-64
2024/01/31 10:06:27;;;;;;;1.33;1.00;;;5.70;99.90;;;;;;4987712;28;20508;-63
2024/01/31 10:08:53;;;;;;;5.60;0.90;;;5.90;99.90;;;;;;4989462;28;20423;-64
2024/01/31 10:11:18;;;;;;;4.63;1.13;;;6.10;99.90;;;;;;4984814;28;20496;-62
2024/01/31 10:13:44;;;;;;;1.70;1.37;;;6.30;99.90;;;;;;4990766;28;20660;-61
2024/01/31 10:16:10;;;;;;;1.33;0.93;;;6.20;99.90;;;;;;4987095;28;20182;-58
2024/01/31 10:18:35;;;;;;;7.07;1.37;;;6.20;99.90;;;;;;4995673;28;20201;-64
2024/01/31 10:21:02;;;;;;;1.43;0.93;;;6.10;99.90;;;;;;4990101;28;20422;-59
2024/01/31 10:23:28;;;;;;;2.47;0.93;;;6.00;99.90;;;;;;4983377;28;20250;-60
2024/01/31 10:25:53;;;;;;;1.43;0.90;;;6.00;99.90;;;;;;4986632;28;20439;-61
2024/01/31 10:28:20;;;;;;;4.73;1.00;;;6.00;99.90;;;;;;4987482;28;20236;-62
2024/01/31 10:30:49;;;;;;;10.23;1.20;;;6.10;99.90;;;;;;4988635;28;20505;-61
2024/01/31 10:33:15;;;;;;;3.80;1.20;;;6.30;99.90;;;;;;4989829;28;20438;-61
2024/01/31 10:35:45;;;;;;;6.00;1.53;;;6.40;99.90;;;;;;4982768;28;20433;-61
2024/01/31 10:38:12;;;;;;;1.20;1.10;;;6.30;99.90;;;;;;4984264;28;20995;-61
2024/01/31 10:40:41;;;;;;;2.70;1.00;;;6.40;99.90;;;;;;4985161;28;20855;-59
2024/01/31 10:43:09;;;;;;;1.67;1.23;;;6.00;99.90;;;;;;4989839;28;20433;-61
2024/01/31 10:45:35;;;;;;;2.03;1.00;;;6.10;99.90;;;;;;4970483;28;20467;-63
2024/01/31 10:48:04;;;;;;;1.20;0.90;;;6.10;99.90;;;;;;4992683;28;20409;-63
2024/01/31 10:50:31;;;;;;;1.90;1.13;;;6.10;99.90;;;;;;4988420;28;20809;-63
2024/01/31 10:52:58;;;;;;;2.40;2.30;;;6.10;99.90;;;;;;4987534;28;20532;-63
2024/01/31 10:55:24;;;;;;;1.73;1.00;;;6.00;99.90;;;;;;4991775;28;20535;-63
2024/01/31 10:57:50;;;;;;;2.63;1.70;;;6.10;99.90;;;;;;4986809;28;20455;-63
2024/01/31 11:00:25;;;;;;;6.47;1.43;;;6.00;99.90;;;;;;4989785;28;20435;-62
2024/01/31 11:02:51;;;;;;;5.87;2.10;;;5.80;99.90;;;;;;4991606;28;20201;-63
2024/01/31 11:05:17;;;;;;;5.37;1.90;;;5.50;99.90;;;;;;4991464;28;20416;-62
2024/01/31 11:07:46;;;;;;;2.73;2.13;;;5.50;99.90;;;;;;4992921;28;20430;-60
2024/01/31 11:10:15;;;;;;;3.73;1.77;;;5.30;99.90;;;;;;4989206;28;20523;-62
2024/01/31 11:12:41;;;;;;;2.10;1.43;;;5.30;99.90;;;;;;4990185;28;20439;-62
2024/01/31 11:15:07;;;;;;;2.07;1.80;;;5.40;99.90;;;;;;4991286;28;20433;-63
2024/01/31 11:17:34;;;;;;;7.60;1.90;;;5.50;99.90;;;;;;4988022;28;20258;-62
2024/01/31 11:20:01;;;;;;;2.77;1.60;;;5.60;99.90;;;;;;4992464;28;20421;-62
2024/01/31 11:22:28;;;;;;;4.27;1.97;;;5.20;99.90;;;;;;4991824;28;20443;-62
2024/01/31 11:24:58;;;;;;;4.33;1.97;;;5.20;99.90;;;;;;4988424;28;20408;-63
2024/01/31 11:27:24;;;;;;;10.03;1.90;;;5.20;99.90;;;;;;4991947;28;20524;-63
2024/01/31 11:29:51;;;;;;;6.80;2.83;;;5.20;99.90;;;;;;4988717;28;20499;-62
2024/01/31 11:32:24;;;;;;;3.10;1.63;;;5.20;99.90;;;;;;4991628;28;20295;-62
2024/01/31 11:35:00;;;;;;;7.43;2.10;;;5.30;99.90;;;;;;4990727;28;20417;-62
2024/01/31 11:37:26;;;;;;;5.67;2.03;;;5.50;99.90;;;;;;4994150;28;20475;-63
2024/01/31 11:39:51;;;;;;;6.10;2.03;;;5.40;99.90;;;;;;4977363;28;20441;-62
2024/01/31 11:42:17;;;;;;;6.63;2.00;;;5.50;99.90;;;;;;4984157;28;20256;-63
2024/01/31 11:44:43;;;;;;;6.97;2.67;;;5.50;99.90;;;;;;4989545;28;20527;-63
2024/01/31 11:47:09;;;;;;;2.00;1.50;;;5.50;99.90;;;;;;4987405;28;20177;-61
2024/01/31 11:49:35;;;;;;;2.63;1.87;;;5.50;99.90;;;;;;4989174;28;20185;-62
2024/01/31 11:52:00;;;;;;;4.73;1.27;;;5.50;99.90;;;;;;4985714;28;20925;-63
2024/01/31 11:54:28;;;;;;;5.37;2.90;;;5.50;99.90;;;;;;4985936;28;20315;-63
2024/01/31 11:56:53;;;;;;;4.20;1.60;;;5.50;99.90;;;;;;4998650;28;20530;-63
2024/01/31 11:59:20;;;;;;;1.83;1.67;;;5.50;99.90;;;;;;4993756;28;20471;-62
2024/01/31 12:01:45;;;;;;;2.80;2.13;;;5.60;99.90;;;;;;4985020;28;20188;-62
2024/01/31 12:04:12;;;;;;;3.00;1.40;;;5.50;99.90;;;;;;4984866;28;20750;-61
2024/01/31 12:06:37;;;;;;;4.70;2.00;;;5.70;99.90;;;;;;4983317;28;20182;-64
2024/01/31 12:09:04;;;;;;;4.70;1.87;;;5.90;99.90;;;;;;4989473;28;20974;-61
2024/01/31 12:11:32;;;;;;;1.77;1.53;;;5.80;99.90;;;;;;4988672;28;20183;-61
2024/01/31 12:13:58;;;;;;;2.47;1.50;;;5.60;99.90;;;;;;4985023;28;20445;-62
2024/01/31 12:16:24;;;;;;;2.67;2.47;;;5.50;99.90;;;;;;4981116;28;20957;-65
2024/01/31 12:19:02;;;;;;;4.13;1.57;;;5.60;99.90;;;;;;5006117;28;20610;-63
2024/01/31 12:21:28;;;;;;;3.23;2.07;;;5.50;99.90;;;;;;4999105;28;20197;-62
2024/01/31 12:23:53;;;;;;;6.10;1.67;;;5.60;99.90;;;;;;4979272;28;21022;-63
2024/01/31 12:26:20;;;;;;;3.87;1.40;;;5.70;99.90;;;;;;4977675;28;20543;-62
2024/01/31 12:28:55;;;;;;;2.10;1.90;;;5.60;99.90;;;;;;4990119;28;20187;-61
2024/01/31 12:31:21;;;;;;;2.87;1.50;;;5.70;99.90;;;;;;4990967;28;20459;-59
2024/01/31 12:33:47;;;;;;;3.17;2.20;;;5.80;99.90;;;;;;4988736;28;20805;-61
2024/01/31 12:36:13;;;;;;;3.00;1.40;;;5.90;99.90;;;;;;4986463;28;20505;-60
2024/01/31 12:38:39;;;;;;;3.13;1.70;;;5.90;99.90;;;;;;4977610;28;20205;-61
2024/01/31 12:41:04;;;;;;;4.90;1.80;;;5.80;99.90;;;;;;4990574;28;20918;-60
2024/01/31 12:43:30;;;;;;;9.40;2.30;;;6.00;99.90;;;;;;4978017;28;20201;-59
2024/01/31 12:45:56;;;;;;;2.43;1.53;;;6.20;99.90;;;;;;4987050;28;20741;-58
2024/01/31 12:48:21;;;;;;;4.17;1.63;;;6.20;99.90;;;;;;4986132;28;20194;-59
2024/01/31 12:50:47;;;;;;;3.33;1.30;;;6.20;99.90;;;;;;4987173;28;20185;-60
2024/01/31 12:53:12;;;;;;;5.23;1.63;;;6.00;99.90;;;;;;4984060;28;20261;-60